sensor_id;sensor_type;location;lat;lon;timestamp;temperature;humidity
8666;DHT22;4370;48.916;8.380;2023-11-19T00:06:07;9.80;99.90
8666;DHT22;4370;48.916;8.380;2023-11-19T00:08:38;9.40;99.90
8666;DHT22;4370;48.916;8.380;2023-11-19T00:11:05;10.20;99.90
8666;DHT22;4370;48.916;8.380;2023-11-19T00:13:36;9.60;99.90
8666;DHT22;4370;48.916;8.380;2023-11-19T00:18:33;9.50;99.90
8666;DHT22;4370;48.916;8.380;2023-11-19T00:20:59;9.60;99.90
8666;DHT22;4370;48.916;8.380;2023-11-19T00:23:24;9.80;99.90
8666;DHT22;4370;48.916;8.380;2023-11-19T00:28:19;9.70;99.90
8666;DHT22;4370;48.916;8.380;2023-11-19T00:30:48;9.90;99.90
8666;DHT22;4370;48.916;8.380;2023-11-19T00:33:13;9.70;99.90
8666;DHT22;4370;48.916;8.380;2023-11-19T00:38:22;10.10;99.90
8666;DHT22;4370;48.916;8.380;2023-11-19T00:40:51;9.90;99.90
8666;DHT22;4370;48.916;8.380;2023-11-19T00:43:23;10.00;99.90
8666;DHT22;4370;48.916;8.380;2023-11-19T00:48:39;10.20;99.90
8666;DHT22;4370;48.916;8.380;2023-11-19T00:51:08;9.80;99.90
8666;DHT22;4370;48.916;8.380;2023-11-19T00:53:35;10.10;99.90
8666;DHT22;4370;48.916;8.380;2023-11-19T00:56:01;10.00;99.90
8666;DHT22;4370;48.916;8.380;2023-11-19T01:03:31;10.80;99.90
8666;DHT22;4370;48.916;8.380;2023-11-19T01:10:52;10.20;99.90
8666;DHT22;4370;48.916;8.380;2023-11-19T01:13:19;10.50;99.90
8666;DHT22;4370;48.916;8.380;2023-11-19T01:15:45;10.10;99.90
8666;DHT22;4370;48.916;8.380;2023-11-19T01:20:38;10.30;99.90
8666;DHT22;4370;48.916;8.380;2023-11-19T01:23:04;10.40;99.90
8666;DHT22;4370;48.916;8.380;2023-11-19T01:25:30;10.50;99.90
8666;DHT22;4370;48.916;8.380;2023-11-19T01:27:56;10.30;99.90
8666;DHT22;4370;48.916;8.380;2023-11-19T01:32:52;10.60;99.90
8666;DHT22;4370;48.916;8.380;2023-11-19T01:35:18;10.30;99.90
8666;DHT22;4370;48.916;8.380;2023-11-19T01:37:45;10.40;99.90
8666;DHT22;4370;48.916;8.380;2023-11-19T01:40:12;10.10;99.90
8666;DHT22;4370;48.916;8.380;2023-11-19T01:42:38;10.40;99.90
8666;DHT22;4370;48.916;8.380;2023-11-19T01:45:08;10.20;99.90
8666;DHT22;4370;48.916;8.380;2023-11-19T01:47:35;10.10;99.90
8666;DHT22;4370;48.916;8.380;2023-11-19T01:50:02;11.00;99.90
8666;DHT22;4370;48.916;8.380;2023-11-19T01:52:32;10.60;99.90
8666;DHT22;4370;48.916;8.380;2023-11-19T01:55:04;10.40;99.90
8666;DHT22;4370;48.916;8.380;2023-11-19T01:59:58;10.60;99.90
8666;DHT22;4370;48.916;8.380;2023-11-19T02:02:27;10.40;99.90
8666;DHT22;4370;48.916;8.380;2023-11-19T02:04:53;10.40;99.90
8666;DHT22;4370;48.916;8.380;2023-11-19T02:07:19;10.30;99.90
8666;DHT22;4370;48.916;8.380;2023-11-19T02:09:45;10.50;99.90
8666;DHT22;4370;48.916;8.380;2023-11-19T02:12:11;10.60;99.90
8666;DHT22;4370;48.916;8.380;2023-11-19T02:14:40;10.60;99.90
8666;DHT22;4370;48.916;8.380;2023-11-19T02:17:06;10.60;99.90
8666;DHT22;4370;48.916;8.380;2023-11-19T02:19:33;10.30;99.90
8666;DHT22;4370;48.916;8.380;2023-11-19T02:21:59;10.50;99.90
8666;DHT22;4370;48.916;8.380;2023-11-19T02:24:29;10.40;99.90
8666;DHT22;4370;48.916;8.380;2023-11-19T02:26:59;10.20;99.90
8666;DHT22;4370;48.916;8.380;2023-11-19T02:29:33;10.40;99.90
8666;DHT22;4370;48.916;8.380;2023-11-19T02:32:00;10.60;99.90
8666;DHT22;4370;48.916;8.380;2023-11-19T02:36:56;10.60;99.90
8666;DHT22;4370;48.916;8.380;2023-11-19T02:39:24;10.70;99.90
8666;DHT22;4370;48.916;8.380;2023-11-19T02:41:49;10.20;99.90
8666;DHT22;4370;48.916;8.380;2023-11-19T02:46:44;10.60;99.90
8666;DHT22;4370;48.916;8.380;2023-11-19T02:49:10;10.80;99.90
8666;DHT22;4370;48.916;8.380;2023-11-19T02:54:04;11.20;99.90
8666;DHT22;4370;48.916;8.380;2023-11-19T02:59:03;10.30;99.90
8666;DHT22;4370;48.916;8.380;2023-11-19T03:01:41;10.80;99.90
8666;DHT22;4370;48.916;8.380;2023-11-19T03:04:14;10.40;99.90
8666;DHT22;4370;48.916;8.380;2023-11-19T03:06:42;10.70;99.90
8666;DHT22;4370;48.916;8.380;2023-11-19T03:09:08;10.40;99.90
8666;DHT22;4370;48.916;8.380;2023-11-19T03:11:36;10.40;99.90
8666;DHT22;4370;48.916;8.380;2023-11-19T03:14:02;10.50;99.90
8666;DHT22;4370;48.916;8.380;2023-11-19T03:21:31;10.70;99.90
8666;DHT22;4370;48.916;8.380;2023-11-19T03:26:27;10.80;99.90
8666;DHT22;4370;48.916;8.380;2023-11-19T03:28:53;10.90;99.90
8666;DHT22;4370;48.916;8.380;2023-11-19T03:33:45;10.50;99.90
8666;DHT22;4370;48.916;8.380;2023-11-19T03:38:38;10.70;99.90
8666;DHT22;4370;48.916;8.380;2023-11-19T03:41:11;10.90;99.90
8666;DHT22;4370;48.916;8.380;2023-11-19T03:43:38;10.90;99.90
8666;DHT22;4370;48.916;8.380;2023-11-19T03:48:32;11.00;99.90
8666;DHT22;4370;48.916;8.380;2023-11-19T03:50:57;11.00;99.90
8666;DHT22;4370;48.916;8.380;2023-11-19T03:53:22;10.90;99.90
8666;DHT22;4370;48.916;8.380;2023-11-19T03:55:49;10.90;99.90
8666;DHT22;4370;48.916;8.380;2023-11-19T03:58:15;11.00;99.90
8666;DHT22;4370;48.916;8.380;2023-11-19T04:00:41;10.80;99.90
8666;DHT22;4370;48.916;8.380;2023-11-19T04:03:06;11.00;99.90
8666;DHT22;4370;48.916;8.380;2023-11-19T04:07:58;10.80;99.90
8666;DHT22;4370;48.916;8.380;2023-11-19T04:27:31;11.20;99.90
8666;DHT22;4370;48.916;8.380;2023-11-19T04:29:56;10.90;99.90
8666;DHT22;4370;48.916;8.380;2023-11-19T04:32:22;11.30;99.90
8666;DHT22;4370;48.916;8.380;2023-11-19T04:34:47;10.90;99.90
8666;DHT22;4370;48.916;8.380;2023-11-19T04:44:32;11.00;99.90
8666;DHT22;4370;48.916;8.380;2023-11-19T04:46:57;11.50;99.90
8666;DHT22;4370;48.916;8.380;2023-11-19T04:49:24;11.30;99.90
8666;DHT22;4370;48.916;8.380;2023-11-19T04:51:52;11.10;99.90
8666;DHT22;4370;48.916;8.380;2023-11-19T04:54:18;11.10;99.90
8666;DHT22;4370;48.916;8.380;2023-11-19T04:56:47;11.10;99.90
8666;DHT22;4370;48.916;8.380;2023-11-19T05:04:07;11.20;99.90
8666;DHT22;4370;48.916;8.380;2023-11-19T05:09:01;12.10;99.90
8666;DHT22;4370;48.916;8.380;2023-11-19T05:11:30;11.50;99.90
8666;DHT22;4370;48.916;8.380;2023-11-19T05:13:55;11.30;99.90
8666;DHT22;4370;48.916;8.380;2023-11-19T05:21:13;11.70;99.90
8666;DHT22;4370;48.916;8.380;2023-11-19T05:23:39;11.70;99.90
8666;DHT22;4370;48.916;8.380;2023-11-19T05:26:05;11.50;99.90
8666;DHT22;4370;48.916;8.380;2023-11-19T05:28:30;11.80;99.90
8666;DHT22;4370;48.916;8.380;2023-11-19T05:30:58;11.80;99.90
8666;DHT22;4370;48.916;8.380;2023-11-19T05:33:24;11.50;99.90
8666;DHT22;4370;48.916;8.380;2023-11-19T05:35:51;11.60;99.90
8666;DHT22;4370;48.916;8.380;2023-11-19T05:40:44;11.80;99.90
8666;DHT22;4370;48.916;8.380;2023-11-19T05:43:09;11.70;99.90
8666;DHT22;4370;48.916;8.380;2023-11-19T05:45:35;11.90;99.90
8666;DHT22;4370;48.916;8.380;2023-11-19T05:50:30;12.10;99.90
8666;DHT22;4370;48.916;8.380;2023-11-19T05:52:55;11.90;99.90
8666;DHT22;4370;48.916;8.380;2023-11-19T06:00:17;12.50;99.90
8666;DHT22;4370;48.916;8.380;2023-11-19T06:02:43;11.90;99.90
8666;DHT22;4370;48.916;8.380;2023-11-19T06:05:09;12.30;99.90
8666;DHT22;4370;48.916;8.380;2023-11-19T06:07:35;11.70;99.90
8666;DHT22;4370;48.916;8.380;2023-11-19T06:10:02;11.90;99.90
8666;DHT22;4370;48.916;8.380;2023-11-19T06:12:30;11.90;99.90
8666;DHT22;4370;48.916;8.380;2023-11-19T06:14:58;12.30;99.90
8666;DHT22;4370;48.916;8.380;2023-11-19T06:17:25;12.10;99.90
8666;DHT22;4370;48.916;8.380;2023-11-19T06:22:17;11.90;99.90
8666;DHT22;4370;48.916;8.380;2023-11-19T06:24:43;12.10;99.90
8666;DHT22;4370;48.916;8.380;2023-11-19T06:27:08;11.90;99.90
8666;DHT22;4370;48.916;8.380;2023-11-19T06:32:03;12.70;99.90
8666;DHT22;4370;48.916;8.380;2023-11-19T06:34:28;12.00;99.90
8666;DHT22;4370;48.916;8.380;2023-11-19T06:36:54;11.90;99.90
8666;DHT22;4370;48.916;8.380;2023-11-19T06:39:19;11.80;99.90
8666;DHT22;4370;48.916;8.380;2023-11-19T06:41:46;11.70;99.90
8666;DHT22;4370;48.916;8.380;2023-11-19T06:44:11;11.80;99.90
8666;DHT22;4370;48.916;8.380;2023-11-19T06:49:03;12.70;99.90
8666;DHT22;4370;48.916;8.380;2023-11-19T06:51:28;12.10;99.90
8666;DHT22;4370;48.916;8.380;2023-11-19T06:56:23;12.10;99.90
8666;DHT22;4370;48.916;8.380;2023-11-19T06:58:50;11.80;99.90
8666;DHT22;4370;48.916;8.380;2023-11-19T07:01:19;12.10;99.90
8666;DHT22;4370;48.916;8.380;2023-11-19T07:03:45;12.10;99.90
8666;DHT22;4370;48.916;8.380;2023-11-19T07:06:11;11.90;99.90
8666;DHT22;4370;48.916;8.380;2023-11-19T07:08:38;12.20;99.90
8666;DHT22;4370;48.916;8.380;2023-11-19T07:11:04;12.30;99.90
8666;DHT22;4370;48.916;8.380;2023-11-19T07:13:30;12.20;99.90
8666;DHT22;4370;48.916;8.380;2023-11-19T07:15:58;12.10;99.90
8666;DHT22;4370;48.916;8.380;2023-11-19T07:18:25;12.00;99.90
8666;DHT22;4370;48.916;8.380;2023-11-19T07:20:50;12.50;99.90
8666;DHT22;4370;48.916;8.380;2023-11-19T07:23:17;12.30;99.90
8666;DHT22;4370;48.916;8.380;2023-11-19T07:25:43;12.50;99.90
8666;DHT22;4370;48.916;8.380;2023-11-19T07:28:13;12.40;99.90
8666;DHT22;4370;48.916;8.380;2023-11-19T07:30:38;12.40;99.90
8666;DHT22;4370;48.916;8.380;2023-11-19T07:35:31;12.30;99.90
8666;DHT22;4370;48.916;8.380;2023-11-19T07:37:57;12.30;99.90
8666;DHT22;4370;48.916;8.380;2023-11-19T07:40:26;12.40;99.90
8666;DHT22;4370;48.916;8.380;2023-11-19T07:42:52;12.40;99.90
8666;DHT22;4370;48.916;8.380;2023-11-19T07:45:19;12.70;99.90
8666;DHT22;4370;48.916;8.380;2023-11-19T07:50:11;12.80;99.90
8666;DHT22;4370;48.916;8.380;2023-11-19T07:52:39;12.50;99.90
8666;DHT22;4370;48.916;8.380;2023-11-19T07:55:05;12.90;99.90
8666;DHT22;4370;48.916;8.380;2023-11-19T07:57:31;12.50;99.90
8666;DHT22;4370;48.916;8.380;2023-11-19T07:59:57;12.90;99.90
8666;DHT22;4370;48.916;8.380;2023-11-19T08:02:23;12.80;99.90
8666;DHT22;4370;48.916;8.380;2023-11-19T08:04:49;12.60;99.90
8666;DHT22;4370;48.916;8.380;2023-11-19T08:07:17;12.60;99.90
8666;DHT22;4370;48.916;8.380;2023-11-19T08:09:44;12.40;99.90
8666;DHT22;4370;48.916;8.380;2023-11-19T08:12:11;12.40;99.90
8666;DHT22;4370;48.916;8.380;2023-11-19T08:14:39;12.70;99.90
8666;DHT22;4370;48.916;8.380;2023-11-19T08:17:05;13.00;99.90
8666;DHT22;4370;48.916;8.380;2023-11-19T08:19:31;12.50;99.90
8666;DHT22;4370;48.916;8.380;2023-11-19T08:21:56;12.60;99.90
8666;DHT22;4370;48.916;8.380;2023-11-19T08:26:50;12.40;99.90
8666;DHT22;4370;48.916;8.380;2023-11-19T08:29:17;12.70;99.90
8666;DHT22;4370;48.916;8.380;2023-11-19T08:31:43;12.70;99.90
8666;DHT22;4370;48.916;8.380;2023-11-19T08:34:10;13.20;99.90
8666;DHT22;4370;48.916;8.380;2023-11-19T08:36:37;12.80;99.90
8666;DHT22;4370;48.916;8.380;2023-11-19T08:39:03;12.70;99.90
8666;DHT22;4370;48.916;8.380;2023-11-19T08:45:16;12.90;99.90
8666;DHT22;4370;48.916;8.380;2023-11-19T08:47:43;12.90;99.90
8666;DHT22;4370;48.916;8.380;2023-11-19T08:50:11;13.10;99.90
8666;DHT22;4370;48.916;8.380;2023-11-19T08:52:37;12.90;99.90
8666;DHT22;4370;48.916;8.380;2023-11-19T08:55:04;12.70;99.90
8666;DHT22;4370;48.916;8.380;2023-11-19T08:57:41;12.60;99.90
8666;DHT22;4370;48.916;8.380;2023-11-19T09:02:35;12.50;99.90
8666;DHT22;4370;48.916;8.380;2023-11-19T09:05:05;12.80;99.90
8666;DHT22;4370;48.916;8.380;2023-11-19T09:07:33;12.70;99.90
8666;DHT22;4370;48.916;8.380;2023-11-19T09:09:59;12.50;99.90
8666;DHT22;4370;48.916;8.380;2023-11-19T09:12:24;12.20;99.90
8666;DHT22;4370;48.916;8.380;2023-11-19T09:14:51;12.40;99.90
8666;DHT22;4370;48.916;8.380;2023-11-19T09:19:45;12.80;99.90
8666;DHT22;4370;48.916;8.380;2023-11-19T09:22:12;12.40;99.90
8666;DHT22;4370;48.916;8.380;2023-11-19T09:24:38;12.60;99.90
8666;DHT22;4370;48.916;8.380;2023-11-19T09:27:05;12.90;99.90
8666;DHT22;4370;48.916;8.380;2023-11-19T09:29:33;12.70;99.90
8666;DHT22;4370;48.916;8.380;2023-11-19T09:32:03;12.60;99.90
8666;DHT22;4370;48.916;8.380;2023-11-19T09:34:29;12.70;99.90
8666;DHT22;4370;48.916;8.380;2023-11-19T09:39:22;12.70;99.90
8666;DHT22;4370;48.916;8.380;2023-11-19T09:41:48;12.90;99.90
8666;DHT22;4370;48.916;8.380;2023-11-19T09:44:14;13.10;99.90
8666;DHT22;4370;48.916;8.380;2023-11-19T09:46:43;13.10;99.90
8666;DHT22;4370;48.916;8.380;2023-11-19T09:49:11;13.20;99.90
8666;DHT22;4370;48.916;8.380;2023-11-19T09:51:38;13.10;99.90
8666;DHT22;4370;48.916;8.380;2023-11-19T09:54:05;13.30;99.90
8666;DHT22;4370;48.916;8.380;2023-11-19T09:56:33;13.20;99.90
8666;DHT22;4370;48.916;8.380;2023-11-19T09:59:02;13.60;99.90
8666;DHT22;4370;48.916;8.380;2023-11-19T10:01:28;13.80;99.90
8666;DHT22;4370;48.916;8.380;2023-11-19T10:03:57;13.80;99.90
8666;DHT22;4370;48.916;8.380;2023-11-19T10:06:25;13.70;99.90
8666;DHT22;4370;48.916;8.380;2023-11-19T10:08:52;13.50;99.90
8666;DHT22;4370;48.916;8.380;2023-11-19T10:11:17;14.00;99.90
8666;DHT22;4370;48.916;8.380;2023-11-19T10:13:43;14.10;99.90
8666;DHT22;4370;48.916;8.380;2023-11-19T10:16:12;14.10;99.90
8666;DHT22;4370;48.916;8.380;2023-11-19T10:18:47;14.50;99.90
8666;DHT22;4370;48.916;8.380;2023-11-19T10:21:15;14.40;99.90
8666;DHT22;4370;48.916;8.380;2023-11-19T10:23:55;15.20;99.90
8666;DHT22;4370;48.916;8.380;2023-11-19T10:26:23;14.20;99.90
8666;DHT22;4370;48.916;8.380;2023-11-19T10:28:49;14.30;99.90
8666;DHT22;4370;48.916;8.380;2023-11-19T10:31:17;14.30;99.90
8666;DHT22;4370;48.916;8.380;2023-11-19T10:33:45;14.20;99.90
8666;DHT22;4370;48.916;8.380;2023-11-19T10:36:12;14.30;99.90
8666;DHT22;4370;48.916;8.380;2023-11-19T10:38:39;14.40;99.90
8666;DHT22;4370;48.916;8.380;2023-11-19T10:43:43;14.40;99.90
8666;DHT22;4370;48.916;8.380;2023-11-19T10:46:13;14.10;99.90
8666;DHT22;4370;48.916;8.380;2023-11-19T10:48:39;13.90;99.90
8666;DHT22;4370;48.916;8.380;2023-11-19T10:51:07;14.40;99.90
8666;DHT22;4370;48.916;8.380;2023-11-19T10:53:38;14.40;99.90
8666;DHT22;4370;48.916;8.380;2023-11-19T10:56:11;14.20;99.90
8666;DHT22;4370;48.916;8.380;2023-11-19T10:58:37;14.40;99.90
8666;DHT22;4370;48.916;8.380;2023-11-19T11:01:13;14.40;99.90
8666;DHT22;4370;48.916;8.380;2023-11-19T11:03:43;14.40;99.90
8666;DHT22;4370;48.916;8.380;2023-11-19T11:06:14;14.40;99.90
8666;DHT22;4370;48.916;8.380;2023-11-19T11:11:08;14.40;99.90
8666;DHT22;4370;48.916;8.380;2023-11-19T11:13:42;14.40;99.90
8666;DHT22;4370;48.916;8.380;2023-11-19T11:16:08;14.60;99.90
8666;DHT22;4370;48.916;8.380;2023-11-19T11:18:35;14.70;99.90
8666;DHT22;4370;48.916;8.380;2023-11-19T11:21:14;14.50;99.90
8666;DHT22;4370;48.916;8.380;2023-11-19T11:27:03;14.30;99.90
8666;DHT22;4370;48.916;8.380;2023-11-19T11:32:33;14.20;99.90
8666;DHT22;4370;48.916;8.380;2023-11-19T11:38:04;14.30;99.90
8666;DHT22;4370;48.916;8.380;2023-11-19T11:43:46;14.80;99.90
8666;DHT22;4370;48.916;8.380;2023-11-19T12:02:11;14.20;99.90
8666;DHT22;4370;48.916;8.380;2023-11-19T12:07:13;14.20;99.90
8666;DHT22;4370;48.916;8.380;2023-11-19T12:09:48;13.70;99.90
8666;DHT22;4370;48.916;8.380;2023-11-19T12:12:26;14.10;99.90
8666;DHT22;4370;48.916;8.380;2023-11-19T12:19:59;14.30;99.90
8666;DHT22;4370;48.916;8.380;2023-11-19T12:22:26;14.40;99.90
8666;DHT22;4370;48.916;8.380;2023-11-19T12:24:54;14.30;99.90
8666;DHT22;4370;48.916;8.380;2023-11-19T12:34:42;14.70;99.90
8666;DHT22;4370;48.916;8.380;2023-11-19T12:37:09;14.60;99.90
8666;DHT22;4370;48.916;8.380;2023-11-19T12:39:35;14.30;99.90
8666;DHT22;4370;48.916;8.380;2023-11-19T12:42:01;14.60;99.90
8666;DHT22;4370;48.916;8.380;2023-11-19T12:44:29;14.40;99.90
8666;DHT22;4370;48.916;8.380;2023-11-19T12:47:05;14.50;99.90
8666;DHT22;4370;48.916;8.380;2023-11-19T12:49:36;14.80;99.90
8666;DHT22;4370;48.916;8.380;2023-11-19T12:52:12;14.90;99.90
8666;DHT22;4370;48.916;8.380;2023-11-19T12:54:39;14.90;99.90
8666;DHT22;4370;48.916;8.380;2023-11-19T12:57:05;15.00;99.90
8666;DHT22;4370;48.916;8.380;2023-11-19T12:59:31;15.30;99.90
8666;DHT22;4370;48.916;8.380;2023-11-19T13:01:57;15.20;99.90
8666;DHT22;4370;48.916;8.380;2023-11-19T13:04:29;15.10;99.90
8666;DHT22;4370;48.916;8.380;2023-11-19T13:06:57;14.60;99.90
8666;DHT22;4370;48.916;8.380;2023-11-19T13:09:27;15.10;99.90
8666;DHT22;4370;48.916;8.380;2023-11-19T13:11:55;15.20;99.90
8666;DHT22;4370;48.916;8.380;2023-11-19T13:14:22;15.00;99.90
8666;DHT22;4370;48.916;8.380;2023-11-19T13:16:48;15.00;99.90
8666;DHT22;4370;48.916;8.380;2023-11-19T13:19:15;14.70;99.90
8666;DHT22;4370;48.916;8.380;2023-11-19T13:21:45;14.60;99.90
8666;DHT22;4370;48.916;8.380;2023-11-19T13:24:13;14.30;99.90
8666;DHT22;4370;48.916;8.380;2023-11-19T13:29:08;14.40;99.90
8666;DHT22;4370;48.916;8.380;2023-11-19T13:31:35;14.30;99.90
8666;DHT22;4370;48.916;8.380;2023-11-19T13:34:01;14.30;99.90
8666;DHT22;4370;48.916;8.380;2023-11-19T13:38:56;14.00;99.90
8666;DHT22;4370;48.916;8.380;2023-11-19T13:41:27;14.00;99.90
8666;DHT22;4370;48.916;8.380;2023-11-19T13:43:53;14.20;99.90
8666;DHT22;4370;48.916;8.380;2023-11-19T13:46:22;14.20;99.90
8666;DHT22;4370;48.916;8.380;2023-11-19T13:48:49;13.80;99.90
8666;DHT22;4370;48.916;8.380;2023-11-19T13:51:16;13.90;99.90
8666;DHT22;4370;48.916;8.380;2023-11-19T13:53:42;14.60;99.90
8666;DHT22;4370;48.916;8.380;2023-11-19T14:01:01;14.20;99.90
8666;DHT22;4370;48.916;8.380;2023-11-19T14:05:53;14.10;99.90
8666;DHT22;4370;48.916;8.380;2023-11-19T14:08:20;13.80;99.90
8666;DHT22;4370;48.916;8.380;2023-11-19T14:13:15;14.40;99.90
8666;DHT22;4370;48.916;8.380;2023-11-19T14:15:42;14.60;99.90
8666;DHT22;4370;48.916;8.380;2023-11-19T14:23:01;14.60;99.90
8666;DHT22;4370;48.916;8.380;2023-11-19T14:25:26;14.70;99.90
8666;DHT22;4370;48.916;8.380;2023-11-19T14:27:52;14.50;99.90
8666;DHT22;4370;48.916;8.380;2023-11-19T14:30:18;14.20;99.90
8666;DHT22;4370;48.916;8.380;2023-11-19T14:32:44;14.70;99.90
8666;DHT22;4370;48.916;8.380;2023-11-19T14:35:11;14.60;99.90
8666;DHT22;4370;48.916;8.380;2023-11-19T14:37:38;14.90;99.90
8666;DHT22;4370;48.916;8.380;2023-11-19T14:40:06;14.50;99.90
8666;DHT22;4370;48.916;8.380;2023-11-19T14:42:34;14.60;99.90
8666;DHT22;4370;48.916;8.380;2023-11-19T14:45:00;14.10;99.90
8666;DHT22;4370;48.916;8.380;2023-11-19T14:47:25;14.20;99.90
8666;DHT22;4370;48.916;8.380;2023-11-19T14:49:51;14.10;99.90
8666;DHT22;4370;48.916;8.380;2023-11-19T14:52:17;14.40;99.90
8666;DHT22;4370;48.916;8.380;2023-11-19T14:54:42;14.30;99.90
8666;DHT22;4370;48.916;8.380;2023-11-19T14:59:35;13.90;99.90
8666;DHT22;4370;48.916;8.380;2023-11-19T15:04:27;14.60;99.90
8666;DHT22;4370;48.916;8.380;2023-11-19T15:06:52;13.80;99.90
8666;DHT22;4370;48.916;8.380;2023-11-19T15:09:19;13.90;99.90
8666;DHT22;4370;48.916;8.380;2023-11-19T15:14:14;13.90;99.90
8666;DHT22;4370;48.916;8.380;2023-11-19T15:16:43;13.60;99.90
8666;DHT22;4370;48.916;8.380;2023-11-19T15:19:08;13.80;99.90
8666;DHT22;4370;48.916;8.380;2023-11-19T15:21:34;13.50;99.90
8666;DHT22;4370;48.916;8.380;2023-11-19T15:24:01;13.60;99.90
8666;DHT22;4370;48.916;8.380;2023-11-19T15:26:30;13.40;99.90
8666;DHT22;4370;48.916;8.380;2023-11-19T15:28:55;13.20;99.90
8666;DHT22;4370;48.916;8.380;2023-11-19T15:33:49;13.50;99.90
8666;DHT22;4370;48.916;8.380;2023-11-19T15:36:14;13.30;99.90
8666;DHT22;4370;48.916;8.380;2023-11-19T15:38:41;13.20;99.90
8666;DHT22;4370;48.916;8.380;2023-11-19T15:43:33;13.10;99.90
8666;DHT22;4370;48.916;8.380;2023-11-19T15:50:53;13.10;99.90
8666;DHT22;4370;48.916;8.380;2023-11-19T15:53:19;13.70;99.90
8666;DHT22;4370;48.916;8.380;2023-11-19T15:55:45;13.60;99.90
8666;DHT22;4370;48.916;8.380;2023-11-19T15:58:10;13.20;99.90
8666;DHT22;4370;48.916;8.380;2023-11-19T16:03:03;13.10;99.90
8666;DHT22;4370;48.916;8.380;2023-11-19T16:07:56;13.10;99.90
8666;DHT22;4370;48.916;8.380;2023-11-19T16:17:41;13.00;99.90
8666;DHT22;4370;48.916;8.380;2023-11-19T16:20:08;13.60;99.90
8666;DHT22;4370;48.916;8.380;2023-11-19T16:22:36;13.00;99.90
8666;DHT22;4370;48.916;8.380;2023-11-19T16:25:03;13.20;99.90
8666;DHT22;4370;48.916;8.380;2023-11-19T16:29:54;13.00;99.90
8666;DHT22;4370;48.916;8.380;2023-11-19T16:32:21;13.00;99.90
8666;DHT22;4370;48.916;8.380;2023-11-19T16:34:47;13.00;99.90
8666;DHT22;4370;48.916;8.380;2023-11-19T16:37:16;13.20;99.90
8666;DHT22;4370;48.916;8.380;2023-11-19T16:39:42;12.80;99.90
8666;DHT22;4370;48.916;8.380;2023-11-19T16:42:11;12.90;99.90
8666;DHT22;4370;48.916;8.380;2023-11-19T16:47:04;12.80;99.90
8666;DHT22;4370;48.916;8.380;2023-11-19T16:49:32;13.30;99.90
8666;DHT22;4370;48.916;8.380;2023-11-19T16:51:58;13.00;99.90
8666;DHT22;4370;48.916;8.380;2023-11-19T16:54:25;12.90;99.90
8666;DHT22;4370;48.916;8.380;2023-11-19T17:01:45;13.00;99.90
8666;DHT22;4370;48.916;8.380;2023-11-19T17:04:12;13.20;99.90
8666;DHT22;4370;48.916;8.380;2023-11-19T17:06:38;13.00;99.90
8666;DHT22;4370;48.916;8.380;2023-11-19T17:09:04;13.00;99.90
8666;DHT22;4370;48.916;8.380;2023-11-19T17:11:30;13.00;99.90
8666;DHT22;4370;48.916;8.380;2023-11-19T17:13:57;13.30;99.90
8666;DHT22;4370;48.916;8.380;2023-11-19T17:21:14;13.30;99.90
8666;DHT22;4370;48.916;8.380;2023-11-19T17:23:43;12.90;99.90
8666;DHT22;4370;48.916;8.380;2023-11-19T17:26:10;13.30;99.90
8666;DHT22;4370;48.916;8.380;2023-11-19T17:35:56;13.80;99.90
8666;DHT22;4370;48.916;8.380;2023-11-19T17:38:22;13.40;99.90
8666;DHT22;4370;48.916;8.380;2023-11-19T17:40:51;13.40;99.90
8666;DHT22;4370;48.916;8.380;2023-11-19T17:43:17;13.30;99.90
8666;DHT22;4370;48.916;8.380;2023-11-19T17:45:46;13.30;99.90
8666;DHT22;4370;48.916;8.380;2023-11-19T17:48:12;13.40;99.90
8666;DHT22;4370;48.916;8.380;2023-11-19T17:50:37;12.90;99.90
8666;DHT22;4370;48.916;8.380;2023-11-19T17:53:03;13.30;99.90
8666;DHT22;4370;48.916;8.380;2023-11-19T17:57:54;13.20;99.90
8666;DHT22;4370;48.916;8.380;2023-11-19T18:00:21;13.30;99.90
8666;DHT22;4370;48.916;8.380;2023-11-19T18:02:48;13.30;99.90
8666;DHT22;4370;48.916;8.380;2023-11-19T18:05:15;13.50;99.90
8666;DHT22;4370;48.916;8.380;2023-11-19T18:10:12;13.70;99.90
8666;DHT22;4370;48.916;8.380;2023-11-19T18:12:38;13.30;99.90
8666;DHT22;4370;48.916;8.380;2023-11-19T18:15:08;13.30;99.90
8666;DHT22;4370;48.916;8.380;2023-11-19T18:17:34;13.20;99.90
8666;DHT22;4370;48.916;8.380;2023-11-19T18:20:03;13.40;99.90
8666;DHT22;4370;48.916;8.380;2023-11-19T18:24:56;13.30;99.90
8666;DHT22;4370;48.916;8.380;2023-11-19T18:32:16;13.00;99.90
8666;DHT22;4370;48.916;8.380;2023-11-19T18:34:41;13.00;99.90
8666;DHT22;4370;48.916;8.380;2023-11-19T18:37:07;13.00;99.90
8666;DHT22;4370;48.916;8.380;2023-11-19T18:39:33;12.90;99.90
8666;DHT22;4370;48.916;8.380;2023-11-19T18:41:59;12.90;99.90
8666;DHT22;4370;48.916;8.380;2023-11-19T18:44:25;12.90;99.90
8666;DHT22;4370;48.916;8.380;2023-11-19T18:49:16;13.00;99.90
8666;DHT22;4370;48.916;8.380;2023-11-19T18:54:08;12.60;99.90
8666;DHT22;4370;48.916;8.380;2023-11-19T18:56:37;12.70;99.90
8666;DHT22;4370;48.916;8.380;2023-11-19T18:59:02;12.90;99.90
8666;DHT22;4370;48.916;8.380;2023-11-19T19:03:57;12.80;99.90
8666;DHT22;4370;48.916;8.380;2023-11-19T19:08:50;12.80;99.90
8666;DHT22;4370;48.916;8.380;2023-11-19T19:11:16;12.80;99.90
8666;DHT22;4370;48.916;8.380;2023-11-19T19:13:44;13.10;99.90
8666;DHT22;4370;48.916;8.380;2023-11-19T19:16:11;12.70;99.90
8666;DHT22;4370;48.916;8.380;2023-11-19T19:18:37;12.50;99.90
8666;DHT22;4370;48.916;8.380;2023-11-19T19:21:05;12.90;99.90
8666;DHT22;4370;48.916;8.380;2023-11-19T19:23:30;12.90;99.90
8666;DHT22;4370;48.916;8.380;2023-11-19T19:25:56;13.00;99.90
8666;DHT22;4370;48.916;8.380;2023-11-19T19:28:22;13.00;99.90
8666;DHT22;4370;48.916;8.380;2023-11-19T19:33:17;12.70;99.90
8666;DHT22;4370;48.916;8.380;2023-11-19T19:35:43;12.90;99.90
8666;DHT22;4370;48.916;8.380;2023-11-19T19:38:09;13.00;99.90
8666;DHT22;4370;48.916;8.380;2023-11-19T19:40:35;12.70;99.90
8666;DHT22;4370;48.916;8.380;2023-11-19T19:43:02;12.80;99.90
8666;DHT22;4370;48.916;8.380;2023-11-19T19:45:29;12.80;99.90
8666;DHT22;4370;48.916;8.380;2023-11-19T19:47:56;12.70;99.90
8666;DHT22;4370;48.916;8.380;2023-11-19T19:50:22;12.60;99.90
8666;DHT22;4370;48.916;8.380;2023-11-19T19:52:49;12.80;99.90
8666;DHT22;4370;48.916;8.380;2023-11-19T19:55:16;12.50;99.90
8666;DHT22;4370;48.916;8.380;2023-11-19T19:57:49;12.60;99.90
8666;DHT22;4370;48.916;8.380;2023-11-19T20:00:15;12.70;99.90
8666;DHT22;4370;48.916;8.380;2023-11-19T20:02:41;12.50;99.90
8666;DHT22;4370;48.916;8.380;2023-11-19T20:05:07;12.70;99.90
8666;DHT22;4370;48.916;8.380;2023-11-19T20:07:40;12.50;99.90
8666;DHT22;4370;48.916;8.380;2023-11-19T20:10:08;12.40;99.90
8666;DHT22;4370;48.916;8.380;2023-11-19T20:12:38;12.70;99.90
8666;DHT22;4370;48.916;8.380;2023-11-19T20:15:07;12.50;99.90
8666;DHT22;4370;48.916;8.380;2023-11-19T20:17:33;12.60;99.90
8666;DHT22;4370;48.916;8.380;2023-11-19T20:20:00;12.50;99.90
8666;DHT22;4370;48.916;8.380;2023-11-19T20:22:26;12.20;99.90
8666;DHT22;4370;48.916;8.380;2023-11-19T20:27:19;12.20;99.90
8666;DHT22;4370;48.916;8.380;2023-11-19T20:29:48;12.40;99.70
8666;DHT22;4370;48.916;8.380;2023-11-19T20:32:14;12.40;99.90
8666;DHT22;4370;48.916;8.380;2023-11-19T20:34:40;12.60;99.90
8666;DHT22;4370;48.916;8.380;2023-11-19T20:37:07;12.30;99.90
8666;DHT22;4370;48.916;8.380;2023-11-19T20:39:33;12.40;99.90
8666;DHT22;4370;48.916;8.380;2023-11-19T20:42:00;12.20;99.90